F/V Pasiphae 2 — FMFN — position and weather

sailwx.info

Track history (hours):
 
Tides and Currents Weather Stations Pressure Air Temp Water Temp Dewpoint Dewpoint Depression Visibility Wind Speed Wind Dir Waves Ship Positions

F/V Pasiphae 2

Last reported at 2016-Aug-29 17:32 UTC. Time now 2016-Aug-29 19:57 UTC.
Position N 47°31' W 004°03'.

Length 14 m.

Type: Fishing. MMSI: 228224800.

Date/timePositionNaut miles runAvg speedWind from/ knotsBaromVisibWave heightAir tempDewpointWater temp
2016-Aug-29 17:32N 47°31' W 004°03'4 3.7
2016-Aug-29 16:33N 47°30' W 003°58'3 3.1
2016-Aug-29 15:33N 47°32' W 004°02'2 1.1
2016-Aug-29 13:31N 47°33' W 003°59'12 1.1
2016-Aug-29 03:07N 47°35' W 003°42'5 8.9
2016-Aug-29 02:33N 47°38' W 003°35'8 8.5
2016-Aug-29 01:33N 47°41' W 003°24'3 0.1
2016-Aug-26 22:11N 47°44' W 003°22'5 8.1
2016-Aug-26 21:34N 47°39' W 003°22'8 8.2
2016-Aug-26 20:34N 47°32' W 003°30'22 2.0
2016-Aug-26 09:32N 47°32' W 004°02'3 2.9
2016-Aug-26 08:23N 47°33' W 004°06'3 3.3
2016-Aug-26 07:33N 47°33' W 004°02'10 2.4
2016-Aug-26 03:33N 47°32' W 003°48'10 9.5
2016-Aug-26 02:32N 47°38' W 003°36'9 9.4
2016-Aug-26 01:33N 47°41' W 003°24'3 2.7
2016-Aug-26 00:33N 47°44' W 003°22'3 2.8
2016-Aug-25 23:33N 47°41' W 003°22'9 8.9
2016-Aug-25 22:33N 47°32' W 003°23'9 8.8
2016-Aug-25 21:33N 47°23' W 003°24'9 8.8
2016-Aug-25 20:34N 47°14' W 003°24'9 4.0
2016-Aug-25 18:18N 47°06' W 003°29'3 4.0
2016-Aug-25 17:33N 47°03' W 003°30'4 3.6
2016-Aug-25 16:33N 46°60' W 003°31'8 0.7
2016-Aug-25 04:33N 47°07' W 003°30'3 3.1
2016-Aug-25 03:33N 47°04' W 003°30'3 3.4
2016-Aug-25 02:33N 47°05' W 003°25'8 1.6
2016-Aug-24 21:33N 46°59' W 003°33'16 0.9
2016-Aug-24 04:34N 47°14' W 003°24'10 9.0
2016-Aug-24 03:30N 47°23' W 003°23'8 9.0
2016-Aug-24 02:34N 47°32' W 003°23'9 9.1
2016-Aug-24 01:33N 47°41' W 003°22'3 3.1
2016-Aug-24 00:34N 47°44' W 003°22'9 9.1
2016-Aug-23 23:34N 47°35' W 003°23'9 9.0
2016-Aug-23 22:33N 47°26' W 003°23'9 8.8
2016-Aug-23 21:34N 47°17' W 003°24'22 5.4
2016-Aug-23 17:33N 46°55' W 003°22'7 3.3
2016-Aug-23 15:27N 46°57' W 003°31'3 1.6
2016-Aug-23 13:33N 46°56' W 003°36'17 1.9
2016-Aug-23 04:33N 47°11' W 003°24'9 8.7
2016-Aug-23 03:33N 47°20' W 003°23'9 8.8
2016-Aug-23 02:33N 47°29' W 003°23'9 8.9
2016-Aug-23 01:33N 47°38' W 003°22'6 6.1
2016-Aug-23 00:33N 47°44' W 003°22'7 6.9
2016-Aug-22 23:33N 47°37' W 003°22'9 8.9
2016-Aug-22 22:33N 47°28' W 003°24'9 8.5
2016-Aug-22 21:33N 47°19' W 003°24'20 1.2
2016-Aug-22 05:19N 46°59' W 003°26'10 3.4
2016-Aug-22 02:32N 47°09' W 003°25'35 0.7
2016-Aug-19 23:07N 47°44' W 003°22'4 7.5
2016-Aug-19 22:33N 47°40' W 003°22'8 8.2
2016-Aug-19 21:34N 47°32' W 003°27'  
Track history (hours):
 
Tides and Currents Weather Stations Pressure Air Temp Water Temp Dewpoint Dewpoint Depression Visibility Wind Speed Wind Dir Waves Ship Positions

F/V Pasiphae 2

Last reported at 2016-Aug-29 17:32 UTC. Time now 2016-Aug-29 19:57 UTC.
Position N 47°31' W 004°03'.

Length 14 m.

Type: Fishing. MMSI: 228224800.

Date/timePositionNaut miles runAvg speedWind from/ knotsBaromVisibWave heightAir tempDewpointWater temp
2016-Aug-29 17:32N 47°31' W 004°03'4 3.7
2016-Aug-29 16:33N 47°30' W 003°58'3 3.1
2016-Aug-29 15:33N 47°32' W 004°02'2 1.1
2016-Aug-29 13:31N 47°33' W 003°59'12 1.1
2016-Aug-29 03:07N 47°35' W 003°42'5 8.9
2016-Aug-29 02:33N 47°38' W 003°35'8 8.5
2016-Aug-29 01:33N 47°41' W 003°24'3 0.1
2016-Aug-26 22:11N 47°44' W 003°22'5 8.1
2016-Aug-26 21:34N 47°39' W 003°22'8 8.2
2016-Aug-26 20:34N 47°32' W 003°30'22 2.0
2016-Aug-26 09:32N 47°32' W 004°02'3 2.9
2016-Aug-26 08:23N 47°33' W 004°06'3 3.3
2016-Aug-26 07:33N 47°33' W 004°02'10 2.4
2016-Aug-26 03:33N 47°32' W 003°48'10 9.5
2016-Aug-26 02:32N 47°38' W 003°36'9 9.4
2016-Aug-26 01:33N 47°41' W 003°24'3 2.7
2016-Aug-26 00:33N 47°44' W 003°22'3 2.8
2016-Aug-25 23:33N 47°41' W 003°22'9 8.9
2016-Aug-25 22:33N 47°32' W 003°23'9 8.8
2016-Aug-25 21:33N 47°23' W 003°24'9 8.8
2016-Aug-25 20:34N 47°14' W 003°24'9 4.0
2016-Aug-25 18:18N 47°06' W 003°29'3 4.0
2016-Aug-25 17:33N 47°03' W 003°30'4 3.6
2016-Aug-25 16:33N 46°60' W 003°31'8 0.7
2016-Aug-25 04:33N 47°07' W 003°30'3 3.1
2016-Aug-25 03:33N 47°04' W 003°30'3 3.4
2016-Aug-25 02:33N 47°05' W 003°25'8 1.6
2016-Aug-24 21:33N 46°59' W 003°33'16 0.9
2016-Aug-24 04:34N 47°14' W 003°24'10 9.0
2016-Aug-24 03:30N 47°23' W 003°23'8 9.0
2016-Aug-24 02:34N 47°32' W 003°23'9 9.1
2016-Aug-24 01:33N 47°41' W 003°22'3 3.1
2016-Aug-24 00:34N 47°44' W 003°22'9 9.1
2016-Aug-23 23:34N 47°35' W 003°23'9 9.0
2016-Aug-23 22:33N 47°26' W 003°23'9 8.8
2016-Aug-23 21:34N 47°17' W 003°24'22 5.4
2016-Aug-23 17:33N 46°55' W 003°22'7 3.3
2016-Aug-23 15:27N 46°57' W 003°31'3 1.6
2016-Aug-23 13:33N 46°56' W 003°36'17 1.9
2016-Aug-23 04:33N 47°11' W 003°24'9 8.7
2016-Aug-23 03:33N 47°20' W 003°23'9 8.8
2016-Aug-23 02:33N 47°29' W 003°23'9 8.9
2016-Aug-23 01:33N 47°38' W 003°22'6 6.1
2016-Aug-23 00:33N 47°44' W 003°22'7 6.9
2016-Aug-22 23:33N 47°37' W 003°22'9 8.9
2016-Aug-22 22:33N 47°28' W 003°24'9 8.5
2016-Aug-22 21:33N 47°19' W 003°24'20 1.2
2016-Aug-22 05:19N 46°59' W 003°26'10 3.4
2016-Aug-22 02:32N 47°09' W 003°25'35 0.7
2016-Aug-19 23:07N 47°44' W 003°22'4 7.5
2016-Aug-19 22:33N 47°40' W 003°22'8 8.2
2016-Aug-19 21:34N 47°32' W 003°27'  

Dump ship's entire track history